PHKO METAR and TAF weather

Enter ICAO airport designator
Station Type Date Time Source
PHKO METAR 2020/04/04 04:53 UTC NOAA

PHKO 040453Z 34007KT 10SM CLR 25/18 A2995 RMK AO2 SLP139 T02500183


Station Type Date Time Source
PHKO Decoded METAR 2020/04/04 04:53 UTC NOAA

KONA INTERNATIONAL AIRPORT, HI, United States (PHKO) 19-44N 156-03W 27M
Apr 04, 2020 - 12:53 AM EDT / 2020.04.04 0453 UTC
Wind: from the NNW (340 degrees) at 8 MPH (7 KT):0
Visibility: 10 mile(s):0
Sky conditions: clear
Temperature: 77.0 F (25.0 C)
Dew Point: 64.9 F (18.3 C)
Relative Humidity: 66%
Pressure (altimeter): 29.95 in. Hg (1014 hPa)
ob: PHKO 040453Z 34007KT 10SM CLR 25/18 A2995 RMK AO2 SLP139 T02500183
cycle: 5

Station Type Date Time Source
PHKO TAF 2020/04/04 03:42 UTC NOAA

TAF
AMD PHKO 040240Z 0403/0424 32010KT P6SM FEW030 SCT050
FM040500 09005KT P6SM SCT050
FM041900 32010KT P6SM FEW030 SCT050

Example: see airport list